createdAt,value
2019-02-05T00:01:35.453Z,14.72
2019-02-05T00:06:43.420Z,14.46
2019-02-05T00:11:51.465Z,17.58
2019-02-05T00:16:59.996Z,16.57
2019-02-05T00:22:08.181Z,15.07
2019-02-05T00:27:16.304Z,16.30
2019-02-05T00:32:24.453Z,14.76
2019-02-05T00:37:32.586Z,15.21
2019-02-05T00:42:40.724Z,14.57
2019-02-05T00:47:48.847Z,14.90
2019-02-05T00:52:57.573Z,15.94
2019-02-05T00:58:05.670Z,14.49
2019-02-05T01:03:13.901Z,15.04
2019-02-05T01:08:22.108Z,15.72
2019-02-05T01:13:30.253Z,16.09
2019-02-05T01:18:38.377Z,16.06
2019-02-05T01:23:46.632Z,16.03
2019-02-05T01:28:55.077Z,17.08
2019-02-05T01:34:03.468Z,16.53
2019-02-05T01:39:11.517Z,16.34
2019-02-05T01:44:19.737Z,18.10
2019-02-05T01:49:27.884Z,18.41
2019-02-05T01:54:36.073Z,18.16
2019-02-05T01:59:44.330Z,18.75
2019-02-05T02:04:52.537Z,18.18
2019-02-05T02:10:00.541Z,20.08
2019-02-05T02:15:09.045Z,18.76
2019-02-05T02:20:17.404Z,19.17
2019-02-05T02:25:25.935Z,18.16
2019-02-05T02:30:34.401Z,19.81
2019-02-05T02:35:42.557Z,20.01
2019-02-05T02:40:50.719Z,19.34
2019-02-05T02:45:59.031Z,19.40
2019-02-05T02:51:07.181Z,19.16
2019-02-05T02:56:15.868Z,21.31
2019-02-05T03:01:24.421Z,20.02
2019-02-05T03:06:32.689Z,21.15
2019-02-05T03:11:40.821Z,20.81
2019-02-05T03:16:48.956Z,21.23
2019-02-05T03:21:56.989Z,21.44
2019-02-05T03:27:16.968Z,21.28
2019-02-05T03:32:12.686Z,22.09
2019-02-05T03:37:21.141Z,22.38
2019-02-05T03:42:29.114Z,23.15
2019-02-05T03:47:37.485Z,22.12
2019-02-05T03:52:45.738Z,23.98
2019-02-05T03:57:54.045Z,23.04
2019-02-05T04:03:02.132Z,23.63
2019-02-05T04:08:10.266Z,22.18
2019-02-05T04:13:19.106Z,25.80
2019-02-05T04:18:27.164Z,25.51
2019-02-05T04:23:35.225Z,27.12
2019-02-05T04:28:43.353Z,25.12
2019-02-05T04:33:51.529Z,25.90
2019-02-05T04:38:53.529Z,26.68
2019-02-05T04:44:01.522Z,26.75
2019-02-05T04:49:09.755Z,27.01
2019-02-05T04:54:17.324Z,25.17
2019-02-05T04:59:25.746Z,24.36
2019-02-05T05:04:33.839Z,26.74
2019-02-05T05:09:35.831Z,27.16
2019-02-05T05:14:43.857Z,26.46
2019-02-05T05:19:51.967Z,25.90
2019-02-05T05:25:00.338Z,28.02
2019-02-05T05:30:08.753Z,28.36
2019-02-05T05:35:16.997Z,27.03
2019-02-05T05:40:25.097Z,26.23
2019-02-05T05:45:27.151Z,25.88
2019-02-05T05:50:35.332Z,26.63
2019-02-05T05:55:37.974Z,26.61
2019-02-05T06:00:46.235Z,28.02
2019-02-05T06:05:54.335Z,27.39
2019-02-05T06:11:03.159Z,27.89
2019-02-05T06:16:11.534Z,27.97
2019-02-05T06:21:19.797Z,28.36
2019-02-05T06:26:27.966Z,27.92
2019-02-05T06:31:36.549Z,29.20
2019-02-05T06:36:44.604Z,29.11
2019-02-05T06:41:52.785Z,29.53
2019-02-05T06:47:01.088Z,30.04
2019-02-05T06:52:09.442Z,29.26
2019-02-05T06:57:17.497Z,31.20
2019-02-05T07:02:25.660Z,29.28
2019-02-05T07:07:33.960Z,28.32
2019-02-05T07:12:42.331Z,29.36
2019-02-05T07:17:50.612Z,29.25
2019-02-05T07:22:58.888Z,29.46
2019-02-05T07:28:07.022Z,27.38
2019-02-05T07:33:15.876Z,29.22
2019-02-05T07:38:24.374Z,26.55
2019-02-05T07:43:33.214Z,28.55
2019-02-05T07:48:41.978Z,28.79
2019-02-05T07:53:50.854Z,30.56
2019-02-05T07:59:09.795Z,29.70
2019-02-05T08:04:08.222Z,27.62
2019-02-05T08:09:16.489Z,31.11
2019-02-05T08:14:24.982Z,30.26
2019-02-05T08:19:34.087Z,29.65
2019-02-05T08:24:42.851Z,28.32
2019-02-05T08:29:51.421Z,30.52
2019-02-05T08:34:52.299Z,32.64
2019-02-05T08:40:00.975Z,28.55
2019-02-05T08:45:09.366Z,31.03
2019-02-05T08:50:17.870Z,32.76
2019-02-05T08:55:26.571Z,32.09
2019-02-05T09:00:35.846Z,34.56
2019-02-05T09:05:44.886Z,34.01
2019-02-05T09:10:52.993Z,34.97
2019-02-05T09:15:53.143Z,32.63
2019-02-05T09:21:02.006Z,35.44
2019-02-05T09:26:04.816Z,36.15
2019-02-05T09:31:13.688Z,32.22
2019-02-05T09:36:22.217Z,32.46
2019-02-05T09:41:30.819Z,32.09
2019-02-05T09:46:40.090Z,34.69
2019-02-05T09:51:39.738Z,34.32
2019-02-05T09:56:49.181Z,30.30
2019-02-05T10:01:59.865Z,32.97
2019-02-05T10:07:08.282Z,33.58
2019-02-05T10:12:16.866Z,31.54
2019-02-05T10:17:25.178Z,31.49
2019-02-05T10:22:33.518Z,31.13
2019-02-05T10:27:42.359Z,29.32
2019-02-05T10:32:50.743Z,29.71
2019-02-05T10:37:58.963Z,28.13
2019-02-05T10:43:07.194Z,25.02
2019-02-05T10:48:15.562Z,25.20
2019-02-05T10:53:23.794Z,27.68
2019-02-05T10:58:32.170Z,22.06
2019-02-05T11:03:40.794Z,26.90
2019-02-05T11:08:49.309Z,23.59
2019-02-05T11:13:57.622Z,25.20
2019-02-05T11:19:06.127Z,27.31
2019-02-05T11:24:14.486Z,25.54
2019-02-05T11:29:22.839Z,24.62
2019-02-05T11:34:31.390Z,24.02
2019-02-05T11:39:40.031Z,24.90
2019-02-05T11:44:48.399Z,25.28
2019-02-05T11:49:56.828Z,23.33
2019-02-05T11:55:05.190Z,25.95
2019-02-05T12:00:13.522Z,24.83
2019-02-05T12:05:22.474Z,23.38
2019-02-05T12:10:30.885Z,24.03
2019-02-05T12:15:39.018Z,24.99
2019-02-05T12:20:47.324Z,24.65
2019-02-05T12:25:55.542Z,27.77
2019-02-05T12:31:04.015Z,27.15
2019-02-05T12:36:13.310Z,29.49
2019-02-05T12:41:21.810Z,26.80
2019-02-05T12:46:30.210Z,28.50
2019-02-05T12:51:38.782Z,28.39
2019-02-05T12:56:47.087Z,26.46
2019-02-05T13:01:55.718Z,26.91
2019-02-05T13:07:04.378Z,28.62
2019-02-05T13:12:12.830Z,25.74
2019-02-05T13:17:21.628Z,26.31
2019-02-05T13:22:29.829Z,25.42
2019-02-05T13:27:38.006Z,25.79
2019-02-05T13:32:46.386Z,25.84
2019-02-05T13:37:54.654Z,24.95
2019-02-05T13:43:03.455Z,27.86
2019-02-05T13:48:11.994Z,27.61
2019-02-05T13:53:20.447Z,25.42
2019-02-05T13:58:28.974Z,24.89
2019-02-05T14:03:37.362Z,23.83
2019-02-05T14:08:45.662Z,23.54
2019-02-05T14:13:54.035Z,24.81
2019-02-05T14:19:02.314Z,24.37
2019-02-05T14:24:09.910Z,22.85
2019-02-05T14:29:18.156Z,22.38
2019-02-05T14:34:26.555Z,24.37
2019-02-05T14:39:34.849Z,23.15
2019-02-05T14:44:43.294Z,24.05
2019-02-05T14:49:51.541Z,24.41
2019-02-05T14:55:00.357Z,23.75
2019-02-05T15:00:08.577Z,25.53
2019-02-05T15:05:17.046Z,24.93
2019-02-05T15:10:25.170Z,24.84
2019-02-05T15:15:34.104Z,23.42
2019-02-05T15:20:42.724Z,24.54
2019-02-05T15:25:51.461Z,23.86
2019-02-05T15:31:00.482Z,24.43
2019-02-05T15:36:09.431Z,24.00
2019-02-05T15:41:17.772Z,22.93
2019-02-05T15:46:26.274Z,23.62
2019-02-05T15:51:35.049Z,26.35
2019-02-05T15:56:43.621Z,23.27
2019-02-05T16:01:52.760Z,25.27
2019-02-05T16:07:02.395Z,27.51
2019-02-05T16:12:10.303Z,25.84
2019-02-05T16:17:18.858Z,25.55
2019-02-05T16:22:27.566Z,25.59
2019-02-05T16:27:36.233Z,26.76
2019-02-05T16:32:44.489Z,27.11
2019-02-05T16:37:53.117Z,29.84
2019-02-05T16:43:01.433Z,27.13
2019-02-05T16:48:13.150Z,26.70
2019-02-05T16:53:11.461Z,31.91
2019-02-05T16:58:19.747Z,32.29
2019-02-05T17:03:28.318Z,32.91
2019-02-05T17:08:36.717Z,29.55
2019-02-05T17:13:45.095Z,31.58
2019-02-05T17:18:53.721Z,31.64
2019-02-05T17:24:02.078Z,33.69
2019-02-05T17:29:10.534Z,33.61
2019-02-05T17:34:19.025Z,34.78
2019-02-05T17:39:27.597Z,33.66
2019-02-05T17:44:35.669Z,31.43
2019-02-05T17:49:44.179Z,34.30
2019-02-05T17:54:52.373Z,36.95
2019-02-05T18:00:00.755Z,39.52
2019-02-05T18:05:09.062Z,35.67
2019-02-05T18:10:17.503Z,35.10
2019-02-05T18:15:25.738Z,35.46
2019-02-05T18:20:34.069Z,34.25
2019-02-05T18:25:42.312Z,37.87
2019-02-05T18:30:50.669Z,43.42
2019-02-05T18:35:59.182Z,43.11
2019-02-05T18:41:07.545Z,48.06
2019-02-05T18:46:15.801Z,53.03
2019-02-05T18:51:24.450Z,47.99
2019-02-05T18:56:33.284Z,43.32
2019-02-05T19:01:42.269Z,45.25
2019-02-05T19:06:50.405Z,45.39
2019-02-05T19:12:02.639Z,48.95
2019-02-05T19:17:06.516Z,47.71
2019-02-05T19:22:14.822Z,55.05
2019-02-05T19:27:23.502Z,49.74
2019-02-05T19:32:32.154Z,49.93
2019-02-05T19:37:40.582Z,48.31
2019-02-05T19:42:49.024Z,48.17
2019-02-05T19:47:57.385Z,49.29
2019-02-05T19:53:06.173Z,48.98
2019-02-05T19:58:14.539Z,47.74
2019-02-05T20:03:23.054Z,50.36
2019-02-05T20:08:31.341Z,49.82
2019-02-05T20:13:40.617Z,49.47
2019-02-05T20:18:47.374Z,53.27
2019-02-05T20:23:55.806Z,57.21
2019-02-05T20:29:04.186Z,48.14
2019-02-05T20:34:12.673Z,49.25
2019-02-05T20:39:21.002Z,48.08
2019-02-05T20:44:29.641Z,47.54
2019-02-05T20:49:37.809Z,50.08
2019-02-05T20:54:46.089Z,48.56
2019-02-05T20:59:54.338Z,45.84
2019-02-05T21:05:03.090Z,45.36
2019-02-05T21:10:11.241Z,48.11
2019-02-05T21:15:19.441Z,50.56
2019-02-05T21:20:29.374Z,48.31
2019-02-05T21:25:35.418Z,48.19
2019-02-05T21:30:43.513Z,50.21
2019-02-05T21:35:51.978Z,47.48
2019-02-05T21:41:00.078Z,48.57
2019-02-05T21:46:08.857Z,51.15
2019-02-05T21:51:17.101Z,56.02
2019-02-05T21:56:25.370Z,49.53
2019-02-05T22:01:35.727Z,52.15
2019-02-05T22:06:34.242Z,47.35
2019-02-05T22:11:42.357Z,49.53
2019-02-05T22:16:50.781Z,49.67
2019-02-05T22:21:58.933Z,52.15
2019-02-05T22:27:07.321Z,52.11
2019-02-05T22:32:15.454Z,52.78
2019-02-05T22:37:23.958Z,49.72
2019-02-05T22:42:32.093Z,48.88
2019-02-05T22:47:40.244Z,51.90
2019-02-05T22:52:48.446Z,49.40
2019-02-05T22:57:56.624Z,48.13
2019-02-05T23:03:04.769Z,52.85
2019-02-05T23:08:12.801Z,53.61
2019-02-05T23:13:20.824Z,51.75
2019-02-05T23:18:28.837Z,53.68
2019-02-05T23:23:36.953Z,49.51
2019-02-05T23:28:45.291Z,49.94
2019-02-05T23:33:53.426Z,51.68
2019-02-05T23:39:01.543Z,46.56
2019-02-05T23:44:09.656Z,51.13
2019-02-05T23:49:17.673Z,44.43
2019-02-05T23:54:25.923Z,50.76
2019-02-05T23:59:33.957Z,51.45
